메인 페이지
METAR-TAF:

METAR-TAF

공항 :

브라자빌, 콩고

위도: 04-15S, 경도: 015-15E, 고도: 319m

현재 날씨관측

예보는 1 시간 10분 전, 07:30시(UTC)에 발표되었습니다.
서남서4kt
온도 21°C
습도 78%
기압 1019 hPa
시정: 2500m
박무,

METAR: FCBB 130730Z 24004KT 2500 BR NSC 21/17 Q1019 NOSIG

시각: 09:40 (08:40 UTC)

예보

예보는 3 시간 40분 전, 05:00시(UTC)에 발표되었습니다.
예보 대상 시간: 13일 06시부터 14일 12시까지 (UTC)
서남서4kt
시정: 4000m
고도 2000ft 상공 구름 조금
박무
전환 중
13일 06시부터 13일 08시까지 (UTC)
시정: 6000m
확률 30%
13일 13시부터 13일 16시까지 (UTC)
시정: 4000m
연무
확률 30%
14일 04시부터 14일 07시까지 (UTC)
시정: 4000m
박무,

TAF: FCBB 130500Z 1306/1412 25004KT 4000 BR FEW020 BECMG 1306/1308 6000 NSW PROB30 1313/1316 4000 HZ PROB30 1404/1407 4000 BR

4,000개 이상의 공항 관측 자료 및 예보 (METAR 및 TAF 보고).

지도상에서 검색 가능한 기상관측소가 노란 점과 빨간 점으로 표시되어 있습니다.

기상관측소 명을 보려면 표시 위로 마우스를 이동하세요.

날씨 관측과 예보를 보려면 클릭하세요.

지도 변경 : 확대하려면 엑스 표시가 있는 녹색 버튼, 축소하려면 빼기 표시가 있는 녹색 버튼, 다음 페이지의 지도를 보려면 녹색 화살표를 클릭하세요.


METAR-TAF: